Time;durP1;ratioP1;P1;durP2;ratioP2;P2;SDS_P1;SDS_P2;PMS_P1;PMS_P2;Temp;Humidity;BMP_temperature;BMP_pressure;BME280_temperature;BME280_humidity;BME280_pressure;Samples;Min_cycle;Max_cycle;Signal;HPM_P1;HPM_P2
2022/10/14 00:01:30;;;;;;;31.33;20.00;;;14.30;99.90;;;;;;5044962;28;20212;-59
2022/10/14 00:03:59;;;;;;;31.57;20.40;;;14.30;99.90;;;;;;5033045;28;20658;-59
2022/10/14 00:06:30;;;;;;;29.37;20.20;;;14.30;99.90;;;;;;5036519;28;20204;-59
2022/10/14 00:09:00;;;;;;;31.67;20.67;;;14.30;99.90;;;;;;5044232;28;20580;-59
2022/10/14 00:11:32;;;;;;;35.17;20.50;;;14.30;99.90;;;;;;5030139;28;20229;-59
2022/10/14 00:14:03;;;;;;;32.23;20.93;;;14.30;99.90;;;;;;5035934;28;20207;-59
2022/10/14 00:16:33;;;;;;;34.97;20.37;;;14.30;99.90;;;;;;5040212;28;20192;-59
2022/10/14 00:19:02;;;;;;;31.77;19.70;;;14.30;99.90;;;;;;5039523;28;20204;-59
2022/10/14 00:21:31;;;;;;;29.83;20.03;;;14.30;99.90;;;;;;5038442;28;20201;-59
2022/10/14 00:24:00;;;;;;;31.83;20.40;;;14.30;99.90;;;;;;5040509;28;20200;-59
2022/10/14 00:26:32;;;;;;;30.83;20.03;;;14.30;99.90;;;;;;5036716;28;20197;-59
2022/10/14 00:29:02;;;;;;;31.43;20.77;;;14.30;99.90;;;;;;5035961;28;20223;-59
2022/10/14 00:31:31;;;;;;;32.30;21.10;;;14.30;99.90;;;;;;5034407;28;20189;-59
2022/10/14 00:33:59;;;;;;;34.47;20.40;;;14.30;99.90;;;;;;5041842;28;20192;-59
2022/10/14 00:36:27;;;;;;;33.33;19.97;;;14.30;99.90;;;;;;5030496;28;20189;-59
2022/10/14 00:38:56;;;;;;;32.07;21.10;;;14.30;99.90;;;;;;5033471;28;20194;-59
2022/10/14 00:41:26;;;;;;;31.43;20.00;;;14.40;99.90;;;;;;5040840;28;20188;-59
2022/10/14 00:43:59;;;;;;;34.80;20.57;;;14.30;99.90;;;;;;5035134;28;20304;-59
2022/10/14 00:46:29;;;;;;;35.00;20.93;;;14.40;99.90;;;;;;5037409;28;20232;-59
2022/10/14 00:49:01;;;;;;;33.57;20.87;;;14.40;99.90;;;;;;5036695;28;20197;-59
2022/10/14 00:51:29;;;;;;;33.03;20.27;;;14.30;99.90;;;;;;5031656;28;21446;-59
2022/10/14 00:53:58;;;;;;;32.70;20.40;;;14.30;99.90;;;;;;5043706;28;20541;-59
2022/10/14 00:56:29;;;;;;;40.17;21.40;;;14.40;99.90;;;;;;5031388;28;20545;-59
2022/10/14 00:59:00;;;;;;;33.33;20.20;;;14.40;99.90;;;;;;5036812;28;20206;-59
2022/10/14 01:01:29;;;;;;;33.90;20.60;;;14.40;99.90;;;;;;5039998;28;20232;-59
2022/10/14 01:03:57;;;;;;;32.70;20.60;;;14.40;99.90;;;;;;5036187;28;20259;-59
2022/10/14 01:06:40;;;;;;;31.73;19.37;;;14.40;99.90;;;;;;5029688;28;20205;-59
2022/10/14 01:09:17;;;;;;;33.53;20.27;;;14.40;99.90;;;;;;5045627;28;20196;-59
2022/10/14 01:11:58;;;;;;;34.87;20.67;;;14.50;99.90;;;;;;5031956;28;20193;-59
2022/10/14 01:14:58;;;;;;;34.63;20.60;;;14.40;99.90;;;;;;5044074;28;20531;-59
2022/10/14 01:17:42;;;;;;;32.47;19.77;;;14.40;99.90;;;;;;5031888;28;20220;-59
2022/10/14 01:20:36;;;;;;;34.40;20.33;;;14.40;99.90;;;;;;5029238;28;20238;-59
2022/10/14 01:23:27;;;;;;;35.90;20.20;;;14.40;99.90;;;;;;5034328;28;20197;-59
2022/10/14 01:26:02;;;;;;;29.83;19.10;;;14.40;99.90;;;;;;5031482;28;20233;-59
2022/10/14 01:28:43;;;;;;;35.37;19.93;;;14.40;99.90;;;;;;5031108;28;20200;-59
2022/10/14 01:31:19;;;;;;;35.47;21.27;;;14.40;99.90;;;;;;5031747;28;20193;-59
2022/10/14 01:33:52;;;;;;;33.03;19.87;;;14.40;99.90;;;;;;5032957;28;20265;-59
2022/10/14 01:36:26;;;;;;;32.07;19.33;;;14.40;99.90;;;;;;5031203;28;20220;-59
2022/10/14 01:39:00;;;;;;;29.23;18.70;;;14.40;99.90;;;;;;5030484;28;20205;-59
2022/10/14 01:41:32;;;;;;;33.67;19.47;;;14.40;99.90;;;;;;5029836;28;20193;-59
2022/10/14 01:44:04;;;;;;;33.13;19.47;;;14.40;99.90;;;;;;5030509;28;20214;-59
2022/10/14 01:46:37;;;;;;;31.73;19.30;;;14.40;99.90;;;;;;5030437;28;20284;-59
2022/10/14 01:49:10;;;;;;;32.47;19.27;;;14.40;99.90;;;;;;5030016;28;20189;-59
2022/10/14 01:51:41;;;;;;;28.53;18.10;;;14.50;99.90;;;;;;5030344;28;20209;-59
2022/10/14 01:54:14;;;;;;;30.37;19.20;;;14.40;99.90;;;;;;5025589;28;20213;-59
2022/10/14 01:56:45;;;;;;;31.47;19.63;;;14.40;99.90;;;;;;5028255;28;20189;-59
2022/10/14 01:59:17;;;;;;;31.70;18.67;;;14.40;99.90;;;;;;5029037;28;20206;-59
2022/10/14 02:01:47;;;;;;;31.83;19.57;;;14.30;99.90;;;;;;5029603;28;20194;-61
2022/10/14 02:04:17;;;;;;;29.73;18.70;;;14.40;99.90;;;;;;5030095;28;20201;-61
2022/10/14 02:06:52;;;;;;;35.57;19.93;;;14.30;99.90;;;;;;5030015;28;20555;-61
2022/10/14 02:09:26;;;;;;;32.17;18.70;;;14.40;99.90;;;;;;5026783;28;20836;-60
2022/10/14 02:12:04;;;;;;;35.17;19.63;;;14.40;99.90;;;;;;5029546;28;20201;-61
2022/10/14 02:14:38;;;;;;;33.07;20.00;;;14.40;99.90;;;;;;5032249;28;20193;-61
2022/10/14 02:17:17;;;;;;;32.23;19.80;;;14.40;99.90;;;;;;5034530;28;20209;-61
2022/10/14 02:19:50;;;;;;;38.30;19.97;;;14.40;99.90;;;;;;5043932;28;20194;-61
2022/10/14 02:22:25;;;;;;;41.33;21.60;;;14.30;99.90;;;;;;5032555;28;20206;-61
2022/10/14 02:24:57;;;;;;;37.17;20.63;;;14.40;99.90;;;;;;5016663;28;20673;-61
2022/10/14 02:27:28;;;;;;;33.57;19.63;;;14.40;99.90;;;;;;5028369;28;20606;-61
2022/10/14 02:29:59;;;;;;;38.10;20.70;;;14.40;99.90;;;;;;5030688;28;20219;-61
2022/10/14 02:32:29;;;;;;;36.17;20.27;;;14.40;99.90;;;;;;5028576;28;20221;-61
2022/10/14 02:34:59;;;;;;;39.87;20.50;;;14.40;99.90;;;;;;5031183;28;20193;-61
2022/10/14 02:37:29;;;;;;;36.67;20.23;;;14.40;99.90;;;;;;5030685;28;20189;-61
2022/10/14 02:40:02;;;;;;;36.70;20.43;;;14.40;99.90;;;;;;5030780;28;20203;-61
2022/10/14 02:42:31;;;;;;;42.57;20.57;;;14.30;99.90;;;;;;5038540;28;20308;-61
2022/10/14 02:45:01;;;;;;;41.43;20.93;;;14.30;99.90;;;;;;5032095;28;20208;-61
2022/10/14 02:47:30;;;;;;;41.40;19.93;;;14.30;99.90;;;;;;5035962;28;20229;-61
2022/10/14 02:49:59;;;;;;;35.83;19.87;;;14.30;99.90;;;;;;5044205;28;20201;-61
2022/10/14 02:52:27;;;;;;;35.73;19.73;;;14.40;99.90;;;;;;5041780;28;20201;-61
2022/10/14 02:54:55;;;;;;;39.17;19.63;;;14.30;99.90;;;;;;5043927;28;20197;-61
2022/10/14 02:57:24;;;;;;;33.03;19.53;;;14.30;99.90;;;;;;5021731;28;20558;-61
2022/10/14 02:59:52;;;;;;;35.57;18.93;;;14.30;99.90;;;;;;5045263;28;20668;-61
2022/10/14 03:02:20;;;;;;;33.13;19.07;;;14.30;99.90;;;;;;5033166;28;20202;-61
2022/10/14 03:04:50;;;;;;;36.37;18.97;;;14.40;99.90;;;;;;5031642;28;20336;-61
2022/10/14 03:07:19;;;;;;;36.60;19.23;;;14.30;99.90;;;;;;5040859;28;20213;-61
2022/10/14 03:09:47;;;;;;;31.63;17.93;;;14.30;99.90;;;;;;5040975;28;20233;-61
2022/10/14 03:12:16;;;;;;;32.83;18.37;;;14.30;99.90;;;;;;5042379;28;20557;-61
2022/10/14 03:14:44;;;;;;;34.33;18.80;;;14.40;99.90;;;;;;5038944;28;20205;-61
2022/10/14 03:17:12;;;;;;;31.50;17.80;;;14.40;99.90;;;;;;5045366;28;20196;-61
2022/10/14 03:19:40;;;;;;;33.63;17.67;;;14.30;99.90;;;;;;5040435;28;20205;-61
2022/10/14 03:22:12;;;;;;;32.60;18.00;;;14.30;99.90;;;;;;5046757;28;20673;-61
2022/10/14 03:24:40;;;;;;;31.23;16.27;;;14.40;99.90;;;;;;5041317;28;20205;-61
2022/10/14 03:27:09;;;;;;;29.97;16.60;;;14.40;99.90;;;;;;5031334;28;20224;-61
2022/10/14 03:29:37;;;;;;;30.47;15.97;;;14.40;99.90;;;;;;5032532;28;20622;-61
2022/10/14 03:32:06;;;;;;;28.70;16.47;;;14.40;99.90;;;;;;5040549;28;20566;-61
2022/10/14 03:34:34;;;;;;;28.53;16.40;;;14.30;99.90;;;;;;5031278;28;20202;-61
2022/10/14 03:37:02;;;;;;;28.10;15.20;;;14.40;99.90;;;;;;5036299;28;20193;-61
2022/10/14 03:39:32;;;;;;;26.03;15.57;;;14.40;99.90;;;;;;5039089;28;20193;-61
2022/10/14 03:42:01;;;;;;;27.13;15.30;;;14.40;99.90;;;;;;5032598;28;20209;-61
2022/10/14 03:44:30;;;;;;;25.13;15.17;;;14.40;99.90;;;;;;5013924;28;20193;-61
2022/10/14 03:46:58;;;;;;;27.73;15.70;;;14.40;99.90;;;;;;5026438;28;20220;-61
2022/10/14 03:49:26;;;;;;;24.60;14.47;;;14.40;99.90;;;;;;5039205;28;20192;-61
2022/10/14 03:51:54;;;;;;;25.10;15.40;;;14.40;99.90;;;;;;5042924;28;20194;-61
2022/10/14 03:54:23;;;;;;;27.83;16.67;;;14.40;99.90;;;;;;5039026;28;20641;-61
2022/10/14 03:56:52;;;;;;;27.67;15.77;;;14.30;99.90;;;;;;5038230;28;20198;-61
2022/10/14 03:59:20;;;;;;;27.27;15.47;;;14.40;99.90;;;;;;5037916;28;20197;-61
2022/10/14 04:01:49;;;;;;;24.00;15.53;;;14.30;99.90;;;;;;5044014;28;20207;-61
2022/10/14 04:04:17;;;;;;;30.23;16.60;;;14.40;99.90;;;;;;5034533;28;20197;-61
2022/10/14 04:06:46;;;;;;;27.80;16.23;;;14.40;99.90;;;;;;5032124;28;20236;-61
2022/10/14 04:09:14;;;;;;;27.23;15.73;;;14.30;99.90;;;;;;5030376;28;20205;-61
2022/10/14 04:11:42;;;;;;;29.73;16.20;;;14.30;99.90;;;;;;5028118;28;20201;-61
2022/10/14 04:14:12;;;;;;;30.37;15.57;;;14.30;99.90;;;;;;5056552;28;20196;-61
2022/10/14 04:16:43;;;;;;;26.47;16.13;;;14.40;99.90;;;;;;5044520;28;20199;-61
2022/10/14 04:19:17;;;;;;;27.40;16.57;;;14.40;99.90;;;;;;5033100;28;20193;-61
2022/10/14 04:21:45;;;;;;;28.20;16.20;;;14.30;99.90;;;;;;5040631;28;20208;-61
2022/10/14 04:24:13;;;;;;;29.60;16.43;;;14.30;99.90;;;;;;5031354;28;20205;-61
2022/10/14 04:26:42;;;;;;;27.83;16.33;;;14.40;99.90;;;;;;5037118;28;20616;-61
2022/10/14 04:29:11;;;;;;;23.97;15.97;;;14.40;99.90;;;;;;5042744;28;20193;-61
2022/10/14 04:31:40;;;;;;;28.50;16.43;;;14.30;99.90;;;;;;5037525;28;20251;-61
2022/10/14 04:34:10;;;;;;;26.57;16.10;;;14.30;99.90;;;;;;5038434;28;20208;-61
2022/10/14 04:36:38;;;;;;;25.70;15.83;;;14.30;99.90;;;;;;5036323;28;20272;-61
2022/10/14 04:39:07;;;;;;;25.27;15.60;;;14.30;99.90;;;;;;5037968;28;20592;-61
2022/10/14 04:41:35;;;;;;;25.50;15.13;;;14.30;99.90;;;;;;5042739;28;20558;-61
2022/10/14 04:44:04;;;;;;;26.63;15.37;;;14.40;99.90;;;;;;5031553;28;20221;-61
2022/10/14 04:46:34;;;;;;;24.30;15.23;;;14.30;99.90;;;;;;5032509;28;20217;-61
2022/10/14 04:49:03;;;;;;;23.33;15.37;;;14.30;99.90;;;;;;5028966;28;20216;-61
2022/10/14 04:51:31;;;;;;;24.10;15.83;;;14.30;99.90;;;;;;5030119;28;20658;-61
2022/10/14 04:54:00;;;;;;;26.50;15.70;;;14.30;99.90;;;;;;5032807;28;20188;-61
2022/10/14 04:56:28;;;;;;;27.03;16.63;;;14.30;99.90;;;;;;5030605;28;20210;-61
2022/10/14 04:58:56;;;;;;;25.50;15.70;;;14.30;99.90;;;;;;5038225;28;20205;-61
2022/10/14 05:01:24;;;;;;;27.17;15.23;;;14.30;99.90;;;;;;5029017;28;20201;-61
2022/10/14 05:04:00;;;;;;;24.47;15.27;;;14.30;99.90;;;;;;5031055;28;20221;-61
2022/10/14 05:06:28;;;;;;;23.43;16.47;;;14.30;99.90;;;;;;5033194;28;20209;-61
2022/10/14 05:08:56;;;;;;;26.63;15.57;;;14.30;99.90;;;;;;5036987;28;20684;-61
2022/10/14 05:11:25;;;;;;;25.20;15.67;;;14.30;99.90;;;;;;5031155;28;20233;-61
2022/10/14 05:13:53;;;;;;;29.43;16.20;;;14.30;99.90;;;;;;5035438;28;20202;-61
2022/10/14 05:16:21;;;;;;;25.97;16.40;;;14.30;99.90;;;;;;5033271;28;20195;-61
2022/10/14 05:18:49;;;;;;;24.40;16.07;;;14.30;99.90;;;;;;5030521;28;20697;-61
2022/10/14 05:21:19;;;;;;;24.27;15.83;;;14.30;99.90;;;;;;5031281;28;20650;-61
2022/10/14 05:23:47;;;;;;;26.47;15.90;;;14.30;99.90;;;;;;5035352;28;20584;-61
2022/10/14 05:26:16;;;;;;;24.47;15.73;;;14.30;99.90;;;;;;5025250;28;20547;-61
2022/10/14 05:28:44;;;;;;;23.87;15.00;;;14.30;99.90;;;;;;5030203;28;20217;-61
2022/10/14 05:31:12;;;;;;;23.27;14.87;;;14.30;99.90;;;;;;5028306;28;20208;-61
2022/10/14 05:33:41;;;;;;;23.30;14.30;;;14.30;99.90;;;;;;5024016;28;20217;-61
2022/10/14 05:36:09;;;;;;;21.43;14.10;;;14.30;99.90;;;;;;5026306;28;20197;-61
2022/10/14 05:38:39;;;;;;;22.70;13.37;;;14.30;99.90;;;;;;5031292;28;20194;-61
2022/10/14 05:41:07;;;;;;;23.93;15.10;;;14.30;99.90;;;;;;5024256;28;20189;-61
2022/10/14 05:43:35;;;;;;;21.60;14.10;;;14.30;99.90;;;;;;5013940;28;20225;-61
2022/10/14 05:46:04;;;;;;;22.20;14.40;;;14.30;99.90;;;;;;5029950;28;21499;-61
2022/10/14 05:48:32;;;;;;;22.50;14.93;;;14.30;99.90;;;;;;5033141;28;20736;-61
2022/10/14 05:51:02;;;;;;;24.00;14.33;;;14.30;99.90;;;;;;5027177;28;20725;-61
2022/10/14 05:53:31;;;;;;;22.53;14.33;;;14.30;99.90;;;;;;5034820;28;20197;-61
2022/10/14 05:56:05;;;;;;;20.83;13.77;;;14.30;99.90;;;;;;5026981;28;20193;-61
2022/10/14 05:58:34;;;;;;;23.57;14.97;;;14.30;99.90;;;;;;5020818;28;20195;-61
2022/10/14 06:01:03;;;;;;;24.23;14.60;;;14.30;99.90;;;;;;5030267;28;20201;-61
2022/10/14 06:03:32;;;;;;;21.97;13.67;;;14.20;99.90;;;;;;5032924;28;20256;-61
2022/10/14 06:06:01;;;;;;;26.30;14.93;;;14.20;99.90;;;;;;5030811;28;20212;-61
2022/10/14 06:08:29;;;;;;;21.93;13.63;;;14.20;99.90;;;;;;5037600;28;20566;-61
2022/10/14 06:10:58;;;;;;;19.40;13.17;;;14.20;99.90;;;;;;5035207;28;20237;-61
2022/10/14 06:13:27;;;;;;;20.53;13.80;;;14.20;99.90;;;;;;5036225;28;20212;-61
2022/10/14 06:15:55;;;;;;;18.07;12.43;;;14.20;99.90;;;;;;5036300;28;20649;-61
2022/10/14 06:18:24;;;;;;;19.60;11.97;;;14.20;99.90;;;;;;5037857;28;20178;-61
2022/10/14 06:20:53;;;;;;;19.67;12.33;;;14.20;99.90;;;;;;5041393;28;20193;-61
2022/10/14 06:23:21;;;;;;;18.17;11.77;;;14.10;99.90;;;;;;5044158;28;20217;-61
2022/10/14 06:25:49;;;;;;;16.27;11.57;;;14.20;99.90;;;;;;5035976;28;20196;-61
2022/10/14 06:28:18;;;;;;;16.67;11.17;;;14.20;99.90;;;;;;5034031;28;20297;-61
2022/10/14 06:30:51;;;;;;;16.40;11.37;;;14.20;99.90;;;;;;5034179;28;20251;-61
2022/10/14 06:33:19;;;;;;;15.00;11.27;;;14.20;99.90;;;;;;5034400;28;20688;-61
2022/10/14 06:35:48;;;;;;;18.57;11.13;;;14.20;99.90;;;;;;5034223;28;20251;-61
2022/10/14 06:38:16;;;;;;;15.47;10.73;;;14.20;99.90;;;;;;5030589;28;20197;-61
2022/10/14 06:40:45;;;;;;;18.23;11.47;;;14.20;99.90;;;;;;5027303;28;20189;-61
2022/10/14 06:43:13;;;;;;;18.50;10.90;;;14.20;99.90;;;;;;5027683;28;20220;-61
2022/10/14 06:45:41;;;;;;;16.90;11.00;;;14.20;99.90;;;;;;5037952;28;20205;-61
2022/10/14 06:48:12;;;;;;;14.00;10.10;;;14.30;99.90;;;;;;5023528;28;20221;-61
2022/10/14 06:50:41;;;;;;;14.73;11.43;;;14.30;99.90;;;;;;5026231;28;20201;-61
2022/10/14 06:53:09;;;;;;;13.03;9.97;;;14.30;99.90;;;;;;5032956;28;20670;-61
2022/10/14 06:55:38;;;;;;;14.23;9.80;;;14.20;99.90;;;;;;5030817;28;20204;-61
2022/10/14 06:58:06;;;;;;;13.07;9.80;;;14.30;99.90;;;;;;5030054;28;20192;-61
2022/10/14 07:00:36;;;;;;;13.93;9.53;;;14.30;99.90;;;;;;5034632;28;20249;-61
2022/10/14 07:03:04;;;;;;;13.10;9.27;;;14.30;99.90;;;;;;5032657;28;20197;-61
2022/10/14 07:05:35;;;;;;;14.17;9.57;;;14.30;99.90;;;;;;5033340;28;20197;-61
2022/10/14 07:08:03;;;;;;;14.37;10.27;;;14.30;99.90;;;;;;5031746;28;20212;-61
2022/10/14 07:10:31;;;;;;;13.30;10.00;;;14.40;99.90;;;;;;5029182;28;20233;-61
2022/10/14 07:13:00;;;;;;;13.90;9.43;;;14.40;99.90;;;;;;5035781;28;20194;-61
2022/10/14 07:15:28;;;;;;;18.43;12.10;;;14.40;99.90;;;;;;5034063;28;20201;-61
2022/10/14 07:18:04;;;;;;;18.17;10.67;;;14.40;99.90;;;;;;5033347;28;20189;-61
2022/10/14 07:20:34;;;;;;;12.60;9.57;;;14.40;99.90;;;;;;5035223;28;20220;-61
2022/10/14 07:23:02;;;;;;;12.90;9.50;;;14.50;99.90;;;;;;5031620;28;20523;-61
2022/10/14 07:25:31;;;;;;;15.90;10.00;;;14.50;99.90;;;;;;5034946;28;21248;-61
2022/10/14 07:28:00;;;;;;;14.17;9.83;;;14.50;99.90;;;;;;5028658;28;20200;-61
2022/10/14 07:30:28;;;;;;;13.20;9.30;;;14.50;99.90;;;;;;5033371;28;20592;-61
2022/10/14 07:32:56;;;;;;;12.23;9.70;;;14.50;99.90;;;;;;5033114;28;20213;-61
2022/10/14 07:35:25;;;;;;;12.37;9.23;;;14.50;99.90;;;;;;5032904;28;20616;-62
2022/10/14 07:37:57;;;;;;;12.13;9.40;;;14.50;99.90;;;;;;5028876;28;20566;-61
2022/10/14 07:40:26;;;;;;;10.67;9.10;;;14.50;99.90;;;;;;5030848;28;20181;-61
2022/10/14 07:42:55;;;;;;;12.97;9.87;;;14.60;99.90;;;;;;5031760;28;20630;-61
2022/10/14 07:45:23;;;;;;;12.37;9.37;;;14.60;99.90;;;;;;5039911;28;20248;-61
2022/10/14 07:47:52;;;;;;;13.90;9.43;;;14.70;99.90;;;;;;5026891;28;20570;-62
2022/10/14 07:50:21;;;;;;;13.50;9.23;;;14.70;99.90;;;;;;5032798;28;20661;-61
2022/10/14 07:52:49;;;;;;;13.10;9.10;;;14.70;99.90;;;;;;5030969;28;20736;-61
2022/10/14 07:55:19;;;;;;;10.63;9.00;;;14.70;99.90;;;;;;5031073;28;20190;-61
2022/10/14 07:57:47;;;;;;;10.83;8.73;;;14.80;99.90;;;;;;5035893;28;20561;-61
2022/10/14 08:00:16;;;;;;;10.47;8.27;;;14.80;99.90;;;;;;5030360;28;20196;-62
2022/10/14 08:02:44;;;;;;;9.03;7.97;;;14.80;99.90;;;;;;5030523;28;20288;-61
2022/10/14 08:05:12;;;;;;;11.93;8.90;;;14.70;99.90;;;;;;5034658;28;20198;-62
2022/10/14 08:08:01;;;;;;;9.50;7.37;;;14.80;99.90;;;;;;5032833;28;20689;-62
2022/10/14 08:10:31;;;;;;;9.93;8.00;;;14.80;99.90;;;;;;5035562;28;20233;-61
2022/10/14 08:12:59;;;;;;;8.10;7.27;;;14.90;99.90;;;;;;5033633;28;20197;-61
2022/10/14 08:15:29;;;;;;;8.77;7.30;;;14.90;99.90;;;;;;5033682;28;20190;-62
2022/10/14 08:17:57;;;;;;;11.00;8.00;;;14.80;99.90;;;;;;5033412;28;22000;-62
2022/10/14 08:20:25;;;;;;;8.60;7.67;;;14.90;99.90;;;;;;5041803;28;20193;-61
2022/10/14 08:22:54;;;;;;;8.40;7.57;;;14.80;99.90;;;;;;5034944;28;20642;-61
2022/10/14 08:25:23;;;;;;;9.70;8.17;;;14.90;99.90;;;;;;5049127;28;20194;-61
2022/10/14 08:27:53;;;;;;;10.00;7.93;;;14.90;99.90;;;;;;5044227;28;20194;-61
2022/10/14 08:30:21;;;;;;;8.93;7.57;;;14.90;99.90;;;;;;5028253;28;20214;-61
2022/10/14 08:32:50;;;;;;;8.60;7.40;;;14.90;99.90;;;;;;5038980;28;20206;-62
2022/10/14 08:35:18;;;;;;;9.20;8.30;;;15.00;99.90;;;;;;5046079;28;20194;-61
2022/10/14 08:37:55;;;;;;;8.60;7.70;;;15.00;99.90;;;;;;5045028;28;20585;-62
2022/10/14 08:40:24;;;;;;;7.93;7.20;;;15.10;99.90;;;;;;5043416;28;20202;-62
2022/10/14 08:43:00;;;;;;;8.40;7.53;;;15.10;99.90;;;;;;5046194;28;20209;-62
2022/10/14 08:45:35;;;;;;;7.97;7.27;;;15.20;99.90;;;;;;5035187;28;20205;-62
2022/10/14 08:48:11;;;;;;;7.77;7.07;;;15.10;99.90;;;;;;5033107;28;20194;-62
2022/10/14 08:50:48;;;;;;;8.03;7.27;;;15.20;99.90;;;;;;5033640;28;20710;-62
2022/10/14 08:53:19;;;;;;;9.17;7.47;;;15.30;99.90;;;;;;5031981;28;20245;-62
2022/10/14 08:55:50;;;;;;;7.87;7.07;;;15.20;99.90;;;;;;5029258;28;20209;-62
2022/10/14 08:58:24;;;;;;;8.80;6.93;;;15.20;99.90;;;;;;5033401;28;20683;-62
2022/10/14 09:01:01;;;;;;;7.57;6.77;;;15.20;99.90;;;;;;5034961;28;20716;-62
2022/10/14 09:03:32;;;;;;;7.80;7.07;;;15.20;99.90;;;;;;5029358;28;20201;-62
2022/10/14 09:06:05;;;;;;;7.70;7.00;;;15.20;99.90;;;;;;5033018;28;20613;-62
2022/10/14 09:08:37;;;;;;;7.80;7.00;;;15.20;99.90;;;;;;5041040;28;20186;-62
2022/10/14 09:11:08;;;;;;;7.33;6.73;;;15.20;99.90;;;;;;5042335;28;20220;-62
2022/10/14 09:13:41;;;;;;;8.17;7.00;;;15.30;99.90;;;;;;5041516;28;20199;-62
2022/10/14 09:16:16;;;;;;;7.83;7.13;;;15.30;99.90;;;;;;5030244;28;20194;-62
2022/10/14 09:18:49;;;;;;;7.50;6.90;;;15.30;99.90;;;;;;5037249;28;20188;-62
2022/10/14 09:21:29;;;;;;;8.07;7.33;;;15.40;99.90;;;;;;5028100;28;21111;-62
2022/10/14 09:24:17;;;;;;;7.73;7.03;;;15.40;99.90;;;;;;5033282;28;20267;-62
2022/10/14 09:26:49;;;;;;;8.30;6.67;;;15.60;99.90;;;;;;5030481;28;20199;-62
2022/10/14 09:29:26;;;;;;;7.80;7.00;;;15.60;99.90;;;;;;5033812;28;20614;-62
2022/10/14 09:31:57;;;;;;;7.50;6.87;;;15.60;99.90;;;;;;5032832;28;20294;-62
2022/10/14 09:34:31;;;;;;;7.60;6.90;;;15.60;99.90;;;;;;5033709;28;20202;-62
2022/10/14 09:37:17;;;;;;;6.90;6.27;;;15.60;99.90;;;;;;5036834;28;20210;-62
2022/10/14 09:39:47;;;;;;;6.60;6.10;;;15.60;99.90;;;;;;5035185;28;20593;-62
2022/10/14 09:42:21;;;;;;;6.97;6.37;;;15.60;99.90;;;;;;5033760;28;20214;-62
2022/10/14 09:45:07;;;;;;;6.87;6.27;;;15.50;99.90;;;;;;5037219;28;20198;-62
2022/10/14 09:47:44;;;;;;;7.13;6.47;;;15.50;99.90;;;;;;5031401;28;20210;-62
2022/10/14 09:50:24;;;;;;;6.43;5.93;;;15.50;99.90;;;;;;5032271;28;20666;-62
2022/10/14 09:52:57;;;;;;;7.13;6.50;;;15.50;99.90;;;;;;5035888;28;20201;-62
2022/10/14 09:55:26;;;;;;;7.70;7.00;;;15.50;99.90;;;;;;5034373;28;20202;-62
2022/10/14 09:58:04;;;;;;;7.87;7.07;;;15.50;99.90;;;;;;5040047;28;20531;-62
2022/10/14 10:00:36;;;;;;;8.00;7.20;;;15.50;99.90;;;;;;5035725;28;20661;-62
2022/10/14 10:03:08;;;;;;;9.10;8.20;;;15.50;99.90;;;;;;5042640;28;20797;-62
2022/10/14 10:05:42;;;;;;;10.97;8.03;;;15.40;99.90;;;;;;5028690;28;20204;-62
2022/10/14 10:08:18;;;;;;;9.53;8.53;;;15.40;99.90;;;;;;5034301;28;20206;-62
2022/10/14 10:10:59;;;;;;;10.17;9.17;;;15.40;99.90;;;;;;5023382;28;20242;-62
2022/10/14 10:13:42;;;;;;;11.23;9.57;;;15.30;99.90;;;;;;5029320;28;20269;-62
2022/10/14 10:16:21;;;;;;;12.40;9.70;;;15.30;99.90;;;;;;5034702;28;20210;-62
2022/10/14 10:18:51;;;;;;;12.97;10.37;;;15.30;99.90;;;;;;5033928;28;20199;-62
2022/10/14 10:21:24;;;;;;;11.73;9.47;;;15.30;99.90;;;;;;5026523;28;20202;-62
2022/10/14 10:23:56;;;;;;;12.70;9.80;;;15.30;99.90;;;;;;5025354;28;20206;-62
2022/10/14 10:26:28;;;;;;;14.23;10.30;;;15.30;99.90;;;;;;5025859;28;20202;-62
2022/10/14 10:28:58;;;;;;;11.63;9.90;;;15.30;99.90;;;;;;5025571;28;20198;-62
2022/10/14 10:31:55;;;;;;;14.00;10.23;;;15.40;99.90;;;;;;5028862;28;20673;-62
2022/10/14 10:34:42;;;;;;;12.03;9.37;;;15.40;99.90;;;;;;5022541;28;21054;-62
2022/10/14 10:37:24;;;;;;;14.60;10.37;;;15.50;99.90;;;;;;5026393;28;20839;-62
2022/10/14 10:40:08;;;;;;;12.33;10.03;;;15.50;99.90;;;;;;5026330;28;20841;-62
2022/10/14 10:42:45;;;;;;;13.43;9.27;;;15.60;99.90;;;;;;5026361;28;20703;-62
2022/10/14 10:45:16;;;;;;;12.47;9.00;;;15.60;99.90;;;;;;5027128;28;20199;-62
2022/10/14 10:47:51;;;;;;;10.67;9.07;;;15.70;99.90;;;;;;5031315;28;20254;-62
2022/10/14 10:50:33;;;;;;;13.00;9.63;;;15.70;99.90;;;;;;5029913;28;20212;-62
2022/10/14 10:53:35;;;;;;;11.10;8.83;;;15.70;99.90;;;;;;5028826;28;20198;-62
2022/10/14 10:56:15;;;;;;;13.07;9.10;;;15.80;99.90;;;;;;5030090;28;20202;-62
2022/10/14 10:59:00;;;;;;;9.53;8.60;;;15.90;99.90;;;;;;5020072;28;20202;-62
2022/10/14 11:01:38;;;;;;;9.77;8.70;;;16.00;99.90;;;;;;5030429;28;20214;-62
2022/10/14 11:04:30;;;;;;;10.30;8.90;;;16.20;99.90;;;;;;5030003;28;20225;-62
2022/10/14 11:12:59;;;;;;;11.80;8.87;;;16.60;99.90;;;;;;5034692;28;20290;-62
2022/10/14 11:15:45;;;;;;;8.93;8.13;;;16.80;99.90;;;;;;5035906;28;20198;-62
2022/10/14 11:18:22;;;;;;;9.60;8.60;;;16.90;99.90;;;;;;5026172;28;20267;-62
2022/10/14 11:21:04;;;;;;;10.00;8.57;;;17.00;99.90;;;;;;5030722;28;20569;-62
2022/10/14 11:23:58;;;;;;;9.83;8.47;;;17.10;99.90;;;;;;5035158;28;20193;-62
2022/10/14 11:26:41;;;;;;;9.80;8.87;;;17.20;99.90;;;;;;5029713;28;20826;-62
2022/10/14 11:29:22;;;;;;;9.87;8.97;;;17.30;99.90;;;;;;5022977;28;20198;-62
2022/10/14 11:31:59;;;;;;;9.87;8.90;;;17.50;99.90;;;;;;5025188;28;20218;-62
2022/10/14 11:34:47;;;;;;;10.23;9.23;;;17.50;99.90;;;;;;5034737;28;20541;-62
2022/10/14 11:37:28;;;;;;;9.33;8.43;;;17.70;99.90;;;;;;5022902;28;20289;-62
2022/10/14 11:40:01;;;;;;;10.07;9.07;;;17.80;99.90;;;;;;5026029;28;20196;-62
2022/10/14 11:42:45;;;;;;;11.33;9.17;;;17.80;99.90;;;;;;5032559;28;20260;-62
2022/10/14 11:45:35;;;;;;;10.77;9.77;;;17.90;99.90;;;;;;5028430;28;20217;-62
2022/10/14 11:48:12;;;;;;;10.60;9.50;;;17.90;99.90;;;;;;5036288;28;20196;-62
2022/10/14 11:50:44;;;;;;;10.90;9.80;;;17.80;99.90;;;;;;5041275;28;20216;-62
2022/10/14 11:53:18;;;;;;;11.60;9.50;;;17.90;99.90;;;;;;5030799;28;20643;-63
2022/10/14 11:55:52;;;;;;;10.50;9.27;;;18.20;99.90;;;;;;5032807;28;20669;-63
2022/10/14 11:58:25;;;;;;;11.23;10.00;;;18.10;99.90;;;;;;5036924;28;20211;-62
2022/10/14 12:00:59;;;;;;;14.37;10.33;;;18.10;99.90;;;;;;5035386;28;20204;-62
2022/10/14 12:03:42;;;;;;;10.10;9.17;;;18.20;99.90;;;;;;5028985;28;20189;-62
2022/10/14 12:06:16;;;;;;;12.73;10.50;;;18.20;99.90;;;;;;5034482;28;20200;-62
2022/10/14 12:08:52;;;;;;;12.83;10.17;;;18.00;99.90;;;;;;5036253;28;20208;-62
2022/10/14 12:11:28;;;;;;;13.53;10.07;;;18.00;99.90;;;;;;5026734;28;20239;-62
2022/10/14 12:14:05;;;;;;;12.20;9.67;;;18.00;99.90;;;;;;5034352;28;20549;-62
2022/10/14 12:16:33;;;;;;;11.37;10.27;;;18.00;99.90;;;;;;5020667;28;20205;-62
2022/10/14 12:19:02;;;;;;;12.20;9.93;;;18.10;99.90;;;;;;5022778;28;20201;-62
2022/10/14 12:21:37;;;;;;;11.50;10.23;;;18.10;99.90;;;;;;5032605;28;20287;-62
2022/10/14 12:24:13;;;;;;;11.67;10.47;;;18.20;99.90;;;;;;5031886;28;20192;-63
2022/10/14 12:26:53;;;;;;;10.33;9.27;;;18.30;99.90;;;;;;5034369;28;20208;-63
2022/10/14 12:29:25;;;;;;;10.23;9.20;;;18.40;99.90;;;;;;5033858;28;20194;-62
2022/10/14 12:32:19;;;;;;;10.40;9.50;;;18.40;99.90;;;;;;5028431;28;20201;-63
2022/10/14 12:34:49;;;;;;;10.13;9.07;;;18.50;99.90;;;;;;5033861;28;20574;-62
2022/10/14 12:37:53;;;;;;;9.40;8.53;;;18.40;99.90;;;;;;5032410;28;20252;-63
2022/10/14 12:40:31;;;;;;;10.37;9.37;;;18.30;99.90;;;;;;5029210;28;20198;-63
2022/10/14 12:43:12;;;;;;;9.10;8.30;;;18.30;99.90;;;;;;5023150;28;20217;-63
2022/10/14 12:45:50;;;;;;;9.23;8.37;;;18.40;99.90;;;;;;5027644;28;20197;-62
2022/10/14 12:48:22;;;;;;;10.57;8.40;;;18.40;99.90;;;;;;5026651;28;20891;-62
2022/10/14 12:50:57;;;;;;;9.77;8.77;;;18.30;99.90;;;;;;5031696;28;20573;-62
2022/10/14 12:53:29;;;;;;;9.57;8.63;;;18.30;99.90;;;;;;5030095;28;20200;-62
2022/10/14 12:56:00;;;;;;;8.90;8.10;;;18.40;99.90;;;;;;5032151;28;20212;-62
2022/10/14 12:58:31;;;;;;;10.00;8.87;;;18.40;99.90;;;;;;5034237;28;20204;-62
2022/10/14 13:01:03;;;;;;;9.20;8.30;;;18.40;99.90;;;;;;5033139;28;20194;-62
2022/10/14 13:03:36;;;;;;;8.33;7.57;;;18.40;99.90;;;;;;5042337;28;20645;-63
2022/10/14 13:06:31;;;;;;;8.13;7.50;;;18.40;99.90;;;;;;5031297;28;20832;-62